AXB551 VOHS-VABB
Flight info
| Callsign | AXB551 |
|---|---|
| Flight time | N/A |
| Altitude | 36000 |
| Route | TAMIV5 APUSU W18 OPAKA EMRAK2A |
| Aircraft | B738/M-SDE2E3FGHIRWXY/LB1 |
Departure
| Time | 2026-04-23 13:00 |
|---|---|
| Airport | Rajiv Gandhi International Airport (VOHS) |
Arrival
| Time | N/A |
|---|---|
| Airport | Chhatrapati Shivaji Maharaj International Airport (VABB) |
| Time | Latitude | Longitude | Altitude | Speed | Heading |
|---|---|---|---|---|---|
| 2026-04-23 12:50 | 17.23401 | 78.42968 | 2008 ft | 2 kts | 0° |
| 2026-04-23 12:50 | 17.23386 | 78.42968 | 2008 ft | 2 kts | 0° |
| 2026-04-23 12:50 | 17.23372 | 78.42968 | 2009 ft | 2 kts | 0° |
| 2026-04-23 12:50 | 17.23356 | 78.42967 | 2009 ft | 2 kts | 17° |
| 2026-04-23 12:51 | 17.23343 | 78.42960 | 2009 ft | 2 kts | 38° |
| 2026-04-23 12:51 | 17.23333 | 78.42949 | 2009 ft | 2 kts | 60° |
| 2026-04-23 12:51 | 17.23327 | 78.42934 | 2008 ft | 2 kts | 82° |
| 2026-04-23 12:51 | 17.23327 | 78.42927 | 2008 ft | 1 kts | 94° |
| 2026-04-23 12:52 | 17.23327 | 78.42923 | 2008 ft | 0 kts | 90° |
| 2026-04-23 12:55 | 17.23327 | 78.42924 | 2008 ft | 1 kts | 90° |
| 2026-04-23 12:55 | 17.23327 | 78.42961 | 2009 ft | 6 kts | 90° |
| 2026-04-23 12:55 | 17.23329 | 78.43043 | 2012 ft | 17 kts | 88° |
| 2026-04-23 12:55 | 17.23301 | 78.43153 | 2017 ft | 13 kts | 162° |
| 2026-04-23 12:56 | 17.23194 | 78.43160 | 2017 ft | 20 kts | 176° |
| 2026-04-23 12:56 | 17.23088 | 78.43206 | 2017 ft | 14 kts | 96° |
| 2026-04-23 12:56 | 17.23087 | 78.43330 | 2020 ft | 22 kts | 90° |
| 2026-04-23 12:56 | 17.23090 | 78.43536 | 2027 ft | 34 kts | 89° |
| 2026-04-23 12:57 | 17.23093 | 78.43811 | 2036 ft | 40 kts | 89° |
| 2026-04-23 12:57 | 17.23097 | 78.44098 | 2046 ft | 39 kts | 89° |
| 2026-04-23 12:57 | 17.23102 | 78.44391 | 2052 ft | 39 kts | 90° |
| 2026-04-23 12:57 | 17.23106 | 78.44672 | 2049 ft | 37 kts | 89° |
| 2026-04-23 12:58 | 17.23110 | 78.44958 | 2040 ft | 41 kts | 89° |
| 2026-04-23 12:58 | 17.23114 | 78.45258 | 2033 ft | 40 kts | 89° |
| 2026-04-23 12:58 | 17.23026 | 78.45328 | 2033 ft | 14 kts | 189° |
| 2026-04-23 12:58 | 17.22947 | 78.45293 | 2035 ft | 10 kts | 221° |
| 2026-04-23 12:59 | 17.22915 | 78.45245 | 2037 ft | 5 kts | 267° |
| 2026-04-23 12:59 | 17.22913 | 78.45216 | 2037 ft | 3 kts | 264° |
| 2026-04-23 12:59 | 17.22912 | 78.45200 | 2037 ft | 1 kts | 264° |
| 2026-04-23 12:59 | 17.22909 | 78.45173 | 2037 ft | 11 kts | 266° |
| 2026-04-23 13:00 | 17.22907 | 78.44840 | 2043 ft | 84 kts | 270° |
| 2026-04-23 13:00 | 17.22890 | 78.43977 | 2041 ft | 148 kts | 270° |
| 2026-04-23 13:00 | 17.22890 | 78.42783 | 2247 ft | 168 kts | 271° |
| 2026-04-23 13:00 | 17.22915 | 78.41593 | 2844 ft | 165 kts | 271° |
| 2026-04-23 13:01 | 17.22927 | 78.40386 | 3261 ft | 175 kts | 269° |
| 2026-04-23 13:01 | 17.22854 | 78.39040 | 3572 ft | 192 kts | 268° |
| 2026-04-23 13:01 | 17.22815 | 78.37572 | 3848 ft | 213 kts | 269° |
| 2026-04-23 13:01 | 17.22788 | 78.35930 | 4116 ft | 237 kts | 269° |
| 2026-04-23 13:02 | 17.22761 | 78.34138 | 4593 ft | 254 kts | 269° |
| 2026-04-23 13:02 | 17.22841 | 78.32244 | 5042 ft | 272 kts | 282° |
| 2026-04-23 13:02 | 17.23373 | 78.30346 | 5782 ft | 276 kts | 288° |
| 2026-04-23 13:02 | 17.23958 | 78.28404 | 6492 ft | 283 kts | 287° |
| 2026-04-23 13:03 | 17.24526 | 78.26439 | 7306 ft | 286 kts | 287° |
| 2026-04-23 13:03 | 17.25108 | 78.24445 | 8095 ft | 290 kts | 287° |
| 2026-04-23 13:03 | 17.25701 | 78.22410 | 8907 ft | 293 kts | 287° |
| 2026-04-23 13:03 | 17.26296 | 78.20369 | 9707 ft | 297 kts | 287° |
| 2026-04-23 13:04 | 17.26899 | 78.18298 | 10386 ft | 305 kts | 288° |
| 2026-04-23 13:04 | 17.27548 | 78.16072 | 10521 ft | 333 kts | 287° |
| 2026-04-23 13:04 | 17.28228 | 78.13734 | 11114 ft | 341 kts | 287° |
| 2026-04-23 13:04 | 17.28928 | 78.11323 | 11722 ft | 350 kts | 288° |
| 2026-04-23 13:05 | 17.29641 | 78.08868 | 12501 ft | 353 kts | 288° |
| 2026-04-23 13:05 | 17.30352 | 78.06422 | 13244 ft | 357 kts | 288° |
| 2026-04-23 13:05 | 17.31078 | 78.03921 | 13974 ft | 361 kts | 288° |
| 2026-04-23 13:05 | 17.31802 | 78.01424 | 14702 ft | 365 kts | 288° |
| 2026-04-23 13:06 | 17.33287 | 77.96304 | 16128 ft | 372 kts | 287° |
| 2026-04-23 13:06 | 17.34044 | 77.93689 | 16814 ft | 376 kts | 287° |
| 2026-04-23 13:06 | 17.34800 | 77.91079 | 17476 ft | 379 kts | 287° |
| 2026-04-23 13:07 | 17.35572 | 77.88409 | 18130 ft | 383 kts | 287° |
| 2026-04-23 13:07 | 17.36337 | 77.85767 | 18754 ft | 386 kts | 287° |
| 2026-04-23 13:07 | 17.37114 | 77.83076 | 19369 ft | 390 kts | 287° |
| 2026-04-23 13:07 | 17.37908 | 77.80331 | 19957 ft | 394 kts | 287° |
| 2026-04-23 13:08 | 17.38717 | 77.77594 | 20590 ft | 396 kts | 290° |
| 2026-04-23 13:08 | 17.39157 | 77.76414 | 20836 ft | 397 kts | 294° |
| 2026-04-23 13:08 | 17.40386 | 77.73819 | 21425 ft | 399 kts | 298° |
| 2026-04-23 13:08 | 17.41665 | 77.71228 | 21975 ft | 402 kts | 297° |
| 2026-04-23 13:09 | 17.42897 | 77.68607 | 22494 ft | 405 kts | 296° |
| 2026-04-23 13:09 | 17.44118 | 77.65971 | 23004 ft | 408 kts | 296° |
| 2026-04-23 13:09 | 17.45369 | 77.63274 | 23504 ft | 411 kts | 296° |
| 2026-04-23 13:09 | 17.46619 | 77.60574 | 23996 ft | 414 kts | 296° |
| 2026-04-23 13:10 | 17.47877 | 77.57848 | 24478 ft | 417 kts | 296° |
| 2026-04-23 13:10 | 17.49129 | 77.55126 | 24920 ft | 420 kts | 296° |
| 2026-04-23 13:10 | 17.50407 | 77.52345 | 25376 ft | 423 kts | 296° |
| 2026-04-23 13:10 | 17.51681 | 77.49568 | 25808 ft | 425 kts | 296° |
| 2026-04-23 13:11 | 17.52952 | 77.46796 | 26227 ft | 428 kts | 296° |
| 2026-04-23 13:11 | 17.54241 | 77.43982 | 26636 ft | 431 kts | 296° |
| 2026-04-23 13:11 | 17.55533 | 77.41157 | 27035 ft | 433 kts | 296° |
| 2026-04-23 13:11 | 17.56832 | 77.38319 | 27421 ft | 436 kts | 296° |
| 2026-04-23 13:12 | 17.58159 | 77.35415 | 27802 ft | 438 kts | 296° |
| 2026-04-23 13:12 | 17.59468 | 77.32550 | 28165 ft | 440 kts | 296° |
| 2026-04-23 13:12 | 17.60794 | 77.29645 | 28526 ft | 443 kts | 296° |
| 2026-04-23 13:12 | 17.62121 | 77.26737 | 28872 ft | 445 kts | 296° |
| 2026-04-23 13:13 | 17.63446 | 77.23833 | 29192 ft | 447 kts | 296° |
| 2026-04-23 13:13 | 17.64806 | 77.20850 | 29519 ft | 450 kts | 296° |
| 2026-04-23 13:13 | 17.66143 | 77.17915 | 29820 ft | 452 kts | 296° |
| 2026-04-23 13:13 | 17.67497 | 77.14943 | 30240 ft | 451 kts | 296° |
| 2026-04-23 13:14 | 17.68842 | 77.11987 | 30771 ft | 448 kts | 296° |
| 2026-04-23 13:14 | 17.70188 | 77.09028 | 31170 ft | 447 kts | 296° |
| 2026-04-23 13:14 | 17.71508 | 77.06126 | 31590 ft | 446 kts | 296° |
| 2026-04-23 13:14 | 17.72838 | 77.03199 | 32003 ft | 445 kts | 296° |
| 2026-04-23 13:15 | 17.74166 | 77.00276 | 32333 ft | 445 kts | 296° |
| 2026-04-23 13:15 | 17.75494 | 76.97353 | 32671 ft | 445 kts | 296° |
| 2026-04-23 13:15 | 17.76379 | 76.95402 | 32889 ft | 446 kts | 296° |
| 2026-04-23 13:15 | 17.78157 | 76.91484 | 33310 ft | 447 kts | 296° |
| 2026-04-23 13:16 | 17.79496 | 76.88532 | 33626 ft | 447 kts | 296° |
| 2026-04-23 13:16 | 17.80832 | 76.85583 | 33948 ft | 447 kts | 295° |
| 2026-04-23 13:16 | 17.82020 | 76.82963 | 34244 ft | 447 kts | 295° |
| 2026-04-23 13:17 | 17.82536 | 76.81823 | 34377 ft | 447 kts | 295° |
| 2026-04-23 13:17 | 17.83851 | 76.78918 | 34698 ft | 446 kts | 295° |
| 2026-04-23 13:18 | 17.85186 | 76.75967 | 35061 ft | 445 kts | 295° |
| 2026-04-23 13:18 | 17.86498 | 76.73068 | 35434 ft | 443 kts | 295° |
| 2026-04-23 13:18 | 17.87810 | 76.70165 | 35742 ft | 442 kts | 295° |
| 2026-04-23 13:19 | 17.90457 | 76.64306 | 35803 ft | 445 kts | 295° |
| 2026-04-23 13:19 | 17.93084 | 76.58485 | 35804 ft | 442 kts | 295° |
| 2026-04-23 13:20 | 17.95721 | 76.52636 | 35804 ft | 441 kts | 295° |
| 2026-04-23 13:20 | 17.98444 | 76.46870 | 35801 ft | 442 kts | 301° |
| 2026-04-23 13:21 | 18.02465 | 76.42071 | 35804 ft | 443 kts | 323° |
| 2026-04-23 13:21 | 18.07801 | 76.38916 | 35804 ft | 443 kts | 335° |
| 2026-04-23 13:22 | 18.13284 | 76.36024 | 35803 ft | 443 kts | 333° |
| 2026-04-23 13:22 | 18.18754 | 76.33093 | 35804 ft | 442 kts | 333° |
| 2026-04-23 13:23 | 18.24250 | 76.30178 | 35803 ft | 442 kts | 333° |
| 2026-04-23 13:23 | 18.29726 | 76.27274 | 35803 ft | 442 kts | 334° |
| 2026-04-23 13:24 | 18.35239 | 76.24355 | 35804 ft | 442 kts | 334° |
| 2026-04-23 13:24 | 18.40715 | 76.21454 | 35804 ft | 442 kts | 334° |
| 2026-04-23 13:25 | 18.46180 | 76.18559 | 35804 ft | 442 kts | 334° |
| 2026-04-23 13:25 | 18.51653 | 76.15658 | 35804 ft | 442 kts | 334° |
| 2026-04-23 13:26 | 18.57166 | 76.12734 | 35804 ft | 442 kts | 334° |
| 2026-04-23 13:26 | 18.62643 | 76.09827 | 35803 ft | 442 kts | 334° |
| 2026-04-23 13:27 | 18.68109 | 76.06924 | 35804 ft | 442 kts | 334° |
| 2026-04-23 13:27 | 18.73599 | 76.04005 | 35805 ft | 442 kts | 334° |
| 2026-04-23 13:28 | 18.79067 | 76.01098 | 35814 ft | 442 kts | 334° |
| 2026-04-23 13:28 | 18.84567 | 75.98171 | 35824 ft | 442 kts | 334° |
| 2026-04-23 13:29 | 18.90032 | 75.95259 | 35831 ft | 442 kts | 333° |
| 2026-04-23 13:29 | 18.95498 | 75.92346 | 35831 ft | 441 kts | 332° |
| 2026-04-23 13:30 | 19.00908 | 75.89461 | 35830 ft | 433 kts | 332° |
| 2026-04-23 13:30 | 19.06233 | 75.86618 | 35830 ft | 425 kts | 332° |
| 2026-04-23 13:31 | 19.11485 | 75.83812 | 35831 ft | 427 kts | 332° |
| 2026-04-23 13:31 | 19.16781 | 75.80981 | 35831 ft | 428 kts | 332° |
| 2026-04-23 13:32 | 19.22072 | 75.78150 | 35831 ft | 428 kts | 332° |
| 2026-04-23 13:32 | 19.27344 | 75.75328 | 35831 ft | 427 kts | 332° |
| 2026-04-23 13:33 | 19.32626 | 75.72498 | 35831 ft | 427 kts | 332° |
| 2026-04-23 13:33 | 19.37931 | 75.69654 | 35831 ft | 427 kts | 332° |
| 2026-04-23 13:34 | 19.43163 | 75.66720 | 35829 ft | 427 kts | 326° |
| 2026-04-23 13:34 | 19.47495 | 75.62497 | 35831 ft | 424 kts | 305° |
| 2026-04-23 13:35 | 19.50151 | 75.57147 | 35829 ft | 422 kts | 287° |
| 2026-04-23 13:35 | 19.51040 | 75.51180 | 35831 ft | 422 kts | 275° |
| 2026-04-23 13:36 | 19.51654 | 75.45042 | 35830 ft | 422 kts | 276° |
| 2026-04-23 13:36 | 19.52309 | 75.38889 | 35830 ft | 421 kts | 276° |
| 2026-04-23 13:37 | 19.52929 | 75.32797 | 35830 ft | 422 kts | 276° |
| 2026-04-23 13:37 | 19.53537 | 75.26791 | 35831 ft | 422 kts | 276° |
| 2026-04-23 13:38 | 19.54158 | 75.20606 | 35831 ft | 422 kts | 276° |
| 2026-04-23 13:38 | 19.54773 | 75.14438 | 35831 ft | 422 kts | 276° |
| 2026-04-23 13:39 | 19.55387 | 75.08260 | 35831 ft | 422 kts | 275° |
| 2026-04-23 13:39 | 19.55990 | 75.02156 | 35831 ft | 422 kts | 275° |
| 2026-04-23 13:40 | 19.56599 | 74.95980 | 35384 ft | 419 kts | 275° |
| 2026-04-23 13:40 | 19.56899 | 74.92923 | 34733 ft | 418 kts | 275° |
| 2026-04-23 13:40 | 19.57199 | 74.89858 | 34134 ft | 415 kts | 275° |
| 2026-04-23 13:40 | 19.57494 | 74.86852 | 33649 ft | 410 kts | 275° |
| 2026-04-23 13:41 | 19.57787 | 74.83849 | 33145 ft | 410 kts | 275° |
| 2026-04-23 13:41 | 19.58080 | 74.80842 | 32638 ft | 414 kts | 275° |
| 2026-04-23 13:41 | 19.58372 | 74.77838 | 32119 ft | 410 kts | 275° |
| 2026-04-23 13:41 | 19.58661 | 74.74869 | 31613 ft | 406 kts | 275° |
| 2026-04-23 13:42 | 19.58948 | 74.71908 | 31191 ft | 402 kts | 275° |
| 2026-04-23 13:42 | 19.59233 | 74.68959 | 30960 ft | 410 kts | 275° |
| 2026-04-23 13:42 | 19.59529 | 74.65886 | 30713 ft | 426 kts | 275° |
| 2026-04-23 13:42 | 19.59836 | 74.62689 | 30461 ft | 441 kts | 275° |
| 2026-04-23 13:43 | 19.60105 | 74.59460 | 30208 ft | 447 kts | 272° |
| 2026-04-23 13:43 | 19.60147 | 74.56167 | 29738 ft | 445 kts | 266° |
| 2026-04-23 13:43 | 19.59822 | 74.52933 | 28885 ft | 443 kts | 258° |
| 2026-04-23 13:43 | 19.59075 | 74.49769 | 28017 ft | 442 kts | 253° |
| 2026-04-23 13:44 | 19.58217 | 74.46683 | 27387 ft | 436 kts | 253° |
| 2026-04-23 13:44 | 19.57406 | 74.43623 | 26735 ft | 431 kts | 253° |
| 2026-04-23 13:44 | 19.56620 | 74.40597 | 26090 ft | 426 kts | 253° |
| 2026-04-23 13:44 | 19.55819 | 74.37573 | 25445 ft | 425 kts | 253° |
| 2026-04-23 13:45 | 19.55286 | 74.35583 | 25014 ft | 427 kts | 253° |
| 2026-04-23 13:45 | 19.54221 | 74.31630 | 24146 ft | 421 kts | 253° |
| 2026-04-23 13:45 | 19.53492 | 74.28928 | 23552 ft | 416 kts | 253° |
| 2026-04-23 13:45 | 19.52674 | 74.25907 | 22886 ft | 412 kts | 253° |
| 2026-04-23 13:46 | 19.51900 | 74.23054 | 22250 ft | 407 kts | 253° |
| 2026-04-23 13:46 | 19.51121 | 74.20191 | 21612 ft | 403 kts | 253° |
| 2026-04-23 13:46 | 19.50349 | 74.17359 | 20976 ft | 399 kts | 253° |
| 2026-04-23 13:46 | 19.49574 | 74.14520 | 20341 ft | 399 kts | 253° |
| 2026-04-23 13:47 | 19.48803 | 74.11700 | 19700 ft | 399 kts | 253° |
| 2026-04-23 13:47 | 19.48042 | 74.08918 | 19059 ft | 394 kts | 253° |
| 2026-04-23 13:47 | 19.47281 | 74.06139 | 18544 ft | 387 kts | 253° |
| 2026-04-23 13:47 | 19.46543 | 74.03444 | 18225 ft | 381 kts | 253° |
| 2026-04-23 13:48 | 19.45801 | 74.00739 | 18019 ft | 390 kts | 253° |
| 2026-04-23 13:48 | 19.45044 | 73.97980 | 17475 ft | 388 kts | 253° |
| 2026-04-23 13:48 | 19.44295 | 73.95253 | 16825 ft | 384 kts | 253° |
| 2026-04-23 13:48 | 19.43556 | 73.92562 | 16401 ft | 374 kts | 253° |
| 2026-04-23 13:49 | 19.42849 | 73.89994 | 16176 ft | 359 kts | 253° |
| 2026-04-23 13:49 | 19.42059 | 73.87517 | 15910 ft | 348 kts | 247° |
| 2026-04-23 13:49 | 19.41033 | 73.85273 | 15867 ft | 330 kts | 241° |
| 2026-04-23 13:49 | 19.39961 | 73.83173 | 15862 ft | 323 kts | 242° |
| 2026-04-23 13:50 | 19.38900 | 73.81055 | 15858 ft | 328 kts | 242° |
| 2026-04-23 13:50 | 19.37823 | 73.78921 | 15858 ft | 329 kts | 241° |
| 2026-04-23 13:50 | 19.36729 | 73.76781 | 15857 ft | 329 kts | 241° |
| 2026-04-23 13:50 | 19.35641 | 73.74662 | 15857 ft | 329 kts | 241° |
| 2026-04-23 13:51 | 19.34554 | 73.72546 | 15852 ft | 328 kts | 241° |
| 2026-04-23 13:51 | 19.33465 | 73.70430 | 15844 ft | 328 kts | 241° |
| 2026-04-23 13:51 | 19.32368 | 73.68301 | 15836 ft | 328 kts | 241° |
| 2026-04-23 13:51 | 19.31282 | 73.66191 | 15807 ft | 326 kts | 242° |
| 2026-04-23 13:52 | 19.30320 | 73.64025 | 15317 ft | 325 kts | 247° |
| 2026-04-23 13:52 | 19.29481 | 73.61857 | 14889 ft | 322 kts | 247° |
| 2026-04-23 13:52 | 19.28600 | 73.59696 | 14435 ft | 320 kts | 246° |
| 2026-04-23 13:52 | 19.27709 | 73.57564 | 13981 ft | 318 kts | 246° |
| 2026-04-23 13:53 | 19.26815 | 73.55419 | 13550 ft | 315 kts | 246° |
| 2026-04-23 13:53 | 19.25951 | 73.53354 | 13480 ft | 308 kts | 246° |
| 2026-04-23 13:53 | 19.25074 | 73.51263 | 13461 ft | 314 kts | 246° |
| 2026-04-23 13:53 | 19.24184 | 73.49143 | 13456 ft | 316 kts | 246° |
| 2026-04-23 13:54 | 19.23292 | 73.47020 | 13101 ft | 321 kts | 246° |
| 2026-04-23 13:54 | 19.22387 | 73.44867 | 12595 ft | 320 kts | 246° |
| 2026-04-23 13:54 | 19.21483 | 73.42717 | 12088 ft | 319 kts | 246° |
| 2026-04-23 13:54 | 19.20597 | 73.40614 | 11454 ft | 312 kts | 246° |
| 2026-04-23 13:55 | 19.19732 | 73.38559 | 10876 ft | 304 kts | 246° |
| 2026-04-23 13:55 | 19.18880 | 73.36537 | 10354 ft | 306 kts | 246° |
| 2026-04-23 13:55 | 19.18019 | 73.34493 | 9805 ft | 308 kts | 246° |
| 2026-04-23 13:55 | 19.17150 | 73.32435 | 9239 ft | 303 kts | 246° |
| 2026-04-23 13:56 | 19.16318 | 73.30462 | 8696 ft | 297 kts | 246° |
| 2026-04-23 13:56 | 19.15474 | 73.28462 | 8142 ft | 295 kts | 246° |
| 2026-04-23 13:56 | 19.14641 | 73.26489 | 7611 ft | 299 kts | 246° |
| 2026-04-23 13:56 | 19.13802 | 73.24500 | 7050 ft | 297 kts | 246° |
| 2026-04-23 13:57 | 19.13245 | 73.23183 | 6677 ft | 291 kts | 247° |
| 2026-04-23 13:57 | 19.12152 | 73.20596 | 5966 ft | 294 kts | 247° |
| 2026-04-23 13:57 | 19.11333 | 73.18658 | 5402 ft | 288 kts | 247° |
| 2026-04-23 13:57 | 19.10534 | 73.16763 | 4854 ft | 280 kts | 248° |
| 2026-04-23 13:58 | 19.09838 | 73.14896 | 4311 ft | 274 kts | 253° |
| 2026-04-23 13:58 | 19.09426 | 73.12997 | 3881 ft | 261 kts | 267° |
| 2026-04-23 13:58 | 19.09284 | 73.11198 | 4057 ft | 236 kts | 266° |
| 2026-04-23 13:58 | 19.09181 | 73.09510 | 4052 ft | 224 kts | 272° |
| 2026-04-23 13:59 | 19.09160 | 73.07916 | 3867 ft | 217 kts | 272° |
| 2026-04-23 13:59 | 19.09138 | 73.06455 | 3637 ft | 202 kts | 274° |
| 2026-04-23 13:59 | 19.09122 | 73.05002 | 3390 ft | 190 kts | 272° |
| 2026-04-23 13:59 | 19.09100 | 73.03686 | 3097 ft | 166 kts | 273° |
| 2026-04-23 14:00 | 19.09090 | 73.02914 | 2871 ft | 152 kts | 274° |
| 2026-04-23 14:00 | 19.09072 | 73.01500 | 2653 ft | 145 kts | 274° |
| 2026-04-23 14:00 | 19.09058 | 73.00420 | 2432 ft | 143 kts | 274° |
| 2026-04-23 14:00 | 19.09044 | 72.99414 | 2242 ft | 138 kts | 274° |
| 2026-04-23 14:01 | 19.09027 | 72.98407 | 2034 ft | 136 kts | 274° |
| 2026-04-23 14:01 | 19.09009 | 72.97424 | 1880 ft | 135 kts | 274° |
| 2026-04-23 14:01 | 19.09001 | 72.96448 | 1715 ft | 134 kts | 276° |
| 2026-04-23 14:01 | 19.09009 | 72.95485 | 1542 ft | 135 kts | 271° |
| 2026-04-23 14:02 | 19.08954 | 72.94610 | 1329 ft | 134 kts | 272° |
| 2026-04-23 14:02 | 19.08938 | 72.93663 | 1100 ft | 131 kts | 276° |